La Palma, Panama
Current Conditions -  °F | °C
As of 1:00 AM on Thursday 29 Jan 2015 (Local Time) from MPTO Reporting Station
Few Clouds Few Clouds  
Wind Chill: 79°   Ceiling: Unl
Heat Index: 81°   Visibility: 6mi
Dew Point: 68°   Wind: 0mph
Humidity: 69%   Direction: NA
Pressure: 29.83"   Gusts: NA
Location:  8.41°N, 78.15°W
Report Text: MPTO 290600Z 00000KT 9999 FEW020 26/20 Q1010 NOSIG
Loading
Personal Weather Stations






























Interactive Weather Map New forecast layout! Learn more

10-Day Weather Forecast

Advertisements
Track Severe Weather on mobile